createdAt,value
2022-08-10T00:01:23.948Z,3.20
2022-08-10T00:05:43.072Z,2.90
2022-08-10T00:21:53.480Z,5.30
2022-08-10T00:26:01.668Z,5.10
2022-08-10T00:30:10.752Z,4.80
2022-08-10T00:34:18.871Z,4.20
2022-08-10T00:38:26.482Z,5.70
2022-08-10T00:42:35.534Z,4.90
2022-08-10T00:46:44.061Z,5.40
2022-08-10T00:50:52.375Z,5.10
2022-08-10T00:55:00.970Z,4.30
2022-08-10T00:59:08.880Z,4.10
2022-08-10T01:03:16.843Z,4.30
2022-08-10T01:07:58.536Z,4.40
2022-08-10T01:12:38.190Z,4.30
2022-08-10T01:16:42.789Z,4.10
2022-08-10T01:21:01.710Z,4.10
2022-08-10T01:25:31.025Z,4.50
2022-08-10T01:29:57.466Z,4.50
2022-08-10T01:34:09.749Z,3.80
2022-08-10T01:38:21.899Z,5.50
2022-08-10T01:42:33.207Z,4.40
2022-08-10T01:46:48.933Z,5.20
2022-08-10T01:51:06.008Z,4.90
2022-08-10T01:55:15.865Z,5.10
2022-08-10T01:59:30.442Z,4.60
2022-08-10T02:04:04.684Z,4.50
2022-08-10T02:08:12.384Z,4.60
2022-08-10T02:12:23.757Z,3.90
2022-08-10T02:16:31.591Z,4.60
2022-08-10T02:20:42.411Z,4.90
2022-08-10T02:24:50.259Z,5.00
2022-08-10T02:28:58.871Z,4.20
2022-08-10T02:33:07.090Z,4.40
2022-08-10T02:37:16.090Z,4.70
2022-08-10T02:45:15.102Z,5.20
2022-08-10T02:46:08.955Z,5.20
2022-08-10T02:50:24.418Z,4.20
2022-08-10T02:54:36.011Z,4.50
2022-08-10T02:58:46.483Z,5.50
2022-08-10T03:02:55.784Z,4.60
2022-08-10T03:07:04.302Z,5.00
2022-08-10T03:11:15.978Z,5.10
2022-08-10T03:15:43.889Z,4.60
2022-08-10T03:20:35.792Z,4.50
2022-08-10T03:24:32.768Z,4.70
2022-08-10T03:28:41.836Z,4.40
2022-08-10T03:32:50.412Z,4.30
2022-08-10T03:37:01.442Z,5.20
2022-08-10T03:41:16.382Z,4.80
2022-08-10T03:45:25.718Z,5.20
2022-08-10T03:49:34.858Z,5.10
2022-08-10T03:54:04.402Z,5.70
2022-08-10T03:58:13.681Z,5.20
2022-08-10T04:02:42.073Z,5.10
2022-08-10T04:06:54.619Z,5.70
2022-08-10T04:11:03.278Z,5.50
2022-08-10T04:15:12.658Z,5.30
2022-08-10T04:19:24.327Z,6.30
2022-08-10T04:23:35.046Z,5.50
2022-08-10T04:27:43.101Z,5.70
2022-08-10T04:31:53.159Z,5.40
2022-08-10T04:36:01.149Z,5.50
2022-08-10T04:40:28.475Z,7.50
2022-08-10T04:44:40.727Z,8.10
2022-08-10T04:48:59.556Z,6.80
2022-08-10T04:53:09.394Z,6.60
2022-08-10T04:57:17.625Z,6.40
2022-08-10T05:01:25.737Z,6.00
2022-08-10T05:05:33.614Z,6.40
2022-08-10T05:10:02.393Z,7.00
2022-08-10T05:14:10.955Z,7.10
2022-08-10T05:18:18.571Z,7.40
2022-08-10T05:22:26.490Z,7.40
2022-08-10T05:26:37.988Z,7.70
2022-08-10T05:31:04.987Z,8.20
2022-08-10T05:35:14.609Z,8.10
2022-08-10T05:39:28.708Z,8.70
2022-08-10T05:43:40.132Z,8.80
2022-08-10T05:48:58.223Z,7.90
2022-08-10T05:52:16.379Z,8.60
2022-08-10T05:56:23.774Z,8.60
2022-08-10T06:00:38.993Z,8.10
2022-08-10T06:04:51.243Z,8.10
2022-08-10T06:09:00.105Z,9.70
2022-08-10T06:13:30.798Z,8.40
2022-08-10T06:17:43.034Z,7.20
2022-08-10T06:22:00.714Z,6.60
2022-08-10T06:26:14.740Z,7.50
2022-08-10T06:30:25.932Z,7.40
2022-08-10T06:34:37.512Z,6.70
2022-08-10T06:38:45.942Z,7.00
2022-08-10T06:42:53.953Z,6.70
2022-08-10T06:47:02.425Z,7.00
2022-08-10T06:51:14.996Z,6.90
2022-08-10T06:55:39.791Z,7.00
2022-08-10T06:59:49.237Z,6.40
2022-08-10T07:04:01.683Z,6.40
2022-08-10T07:08:11.244Z,6.90
2022-08-10T07:12:22.769Z,5.90
2022-08-10T07:16:30.595Z,5.70
2022-08-10T07:20:39.281Z,6.30
2022-08-10T07:24:48.265Z,5.60
2022-08-10T07:28:56.917Z,5.30
2022-08-10T07:33:05.871Z,5.90
2022-08-10T07:37:14.639Z,5.60
2022-08-10T07:41:23.989Z,5.10
2022-08-10T07:45:34.468Z,4.90
2022-08-10T07:49:44.580Z,4.30
2022-08-10T07:53:56.422Z,4.50
2022-08-10T07:58:05.280Z,4.00
2022-08-10T08:02:25.258Z,4.00
2022-08-10T08:06:34.698Z,3.80
2022-08-10T08:10:46.355Z,3.70
2022-08-10T08:14:54.633Z,3.60
2022-08-10T08:24:07.232Z,3.30
2022-08-10T08:28:02.158Z,3.60
2022-08-10T08:32:11.953Z,3.30
2022-08-10T08:36:22.490Z,3.20
2022-08-10T08:40:33.724Z,3.30
2022-08-10T08:44:57.298Z,3.20
2022-08-10T08:50:07.786Z,3.20
2022-08-10T08:54:04.581Z,3.40
2022-08-10T08:58:27.959Z,3.00
2022-08-10T09:03:09.455Z,2.90
2022-08-10T09:07:39.375Z,3.10
2022-08-10T09:12:21.904Z,3.10
2022-08-10T09:16:34.239Z,3.30
2022-08-10T09:20:44.155Z,3.10
2022-08-10T09:24:58.797Z,3.10
2022-08-10T09:29:12.216Z,2.80
2022-08-10T09:36:19.532Z,2.80
2022-08-10T09:38:03.349Z,3.40
2022-08-10T09:42:14.750Z,2.50
2022-08-10T09:46:44.259Z,2.70
2022-08-10T09:51:41.731Z,2.70
2022-08-10T09:56:18.537Z,2.70
2022-08-10T10:00:03.419Z,2.60
2022-08-10T10:04:24.149Z,2.80
2022-08-10T10:08:42.646Z,2.40
2022-08-10T10:12:54.833Z,2.50
2022-08-10T10:17:13.045Z,2.40
2022-08-10T10:21:55.646Z,2.70
2022-08-10T10:26:03.600Z,2.50
2022-08-10T10:30:17.152Z,2.10
2022-08-10T10:34:33.224Z,2.40
2022-08-10T10:38:43.202Z,2.60
2022-08-10T10:42:57.769Z,2.70
2022-08-10T10:47:14.499Z,2.70
2022-08-10T10:51:27.573Z,2.80
2022-08-10T10:56:14.866Z,2.40
2022-08-10T11:00:10.451Z,2.40
2022-08-10T11:04:25.317Z,2.40
2022-08-10T11:08:36.338Z,2.80
2022-08-10T11:12:48.341Z,2.40
2022-08-10T11:17:02.757Z,2.70
2022-08-10T11:21:17.559Z,2.60
2022-08-10T11:25:30.643Z,2.80
2022-08-10T11:29:49.838Z,2.50
2022-08-10T11:34:49.335Z,2.20
2022-08-10T11:38:47.150Z,2.20
2022-08-10T11:43:11.758Z,2.40
2022-08-10T11:47:23.877Z,2.50
2022-08-10T11:51:45.313Z,2.50
2022-08-10T11:56:01.090Z,2.20
2022-08-10T12:00:15.092Z,2.50
2022-08-10T12:04:24.039Z,2.20
2022-08-10T12:10:05.510Z,2.10
2022-08-10T12:13:07.327Z,2.20
2022-08-10T12:17:20.439Z,1.90
2022-08-10T12:21:32.529Z,2.10
2022-08-10T12:25:57.513Z,2.10
2022-08-10T12:30:08.635Z,2.20
2022-08-10T12:34:24.606Z,2.20
2022-08-10T12:38:39.192Z,2.10
2022-08-10T12:43:13.043Z,2.30
2022-08-10T12:47:22.706Z,2.30
2022-08-10T12:51:31.177Z,2.10
2022-08-10T12:55:41.035Z,2.00
2022-08-10T12:59:52.019Z,2.30
2022-08-10T13:04:21.366Z,2.50
2022-08-10T13:08:52.936Z,2.10
2022-08-10T13:13:02.282Z,2.20
2022-08-10T13:17:11.355Z,2.40
2022-08-10T13:21:21.378Z,2.40
2022-08-10T13:25:36.721Z,2.40
2022-08-10T13:29:50.676Z,2.30
2022-08-10T13:34:40.352Z,2.00
2022-08-10T13:38:30.916Z,2.20
2022-08-10T13:42:41.705Z,2.60
2022-08-10T13:46:53.126Z,2.30
2022-08-10T13:51:02.966Z,2.30
2022-08-10T13:55:15.955Z,2.70
2022-08-10T13:59:25.943Z,2.50
2022-08-10T14:03:55.855Z,2.20
2022-08-10T14:08:05.083Z,2.20
2022-08-10T14:12:13.987Z,2.30
2022-08-10T14:16:22.624Z,2.10
2022-08-10T14:20:33.313Z,2.50
2022-08-10T14:24:42.494Z,2.00
2022-08-10T14:28:54.541Z,2.10
2022-08-10T14:33:05.052Z,2.20
2022-08-10T14:37:16.271Z,2.30
2022-08-10T14:42:00.828Z,2.20
2022-08-10T14:46:02.333Z,2.00
2022-08-10T14:50:11.765Z,2.20
2022-08-10T14:54:24.407Z,1.90
2022-08-10T14:58:38.775Z,2.00
2022-08-10T15:03:11.023Z,2.20
2022-08-10T15:07:34.748Z,2.30
2022-08-10T15:12:14.039Z,2.20
2022-08-10T15:16:13.362Z,1.90
2022-08-10T15:20:26.852Z,1.80
2022-08-10T15:24:52.957Z,1.80
2022-08-10T15:29:22.338Z,2.10
2022-08-10T15:34:04.440Z,1.80
2022-08-10T15:38:14.021Z,2.10
2022-08-10T15:42:26.368Z,2.10
2022-08-10T15:46:38.811Z,2.10
2022-08-10T15:50:49.294Z,2.30
2022-08-10T15:55:00.286Z,2.10
2022-08-10T15:59:12.640Z,1.90
2022-08-10T16:03:31.836Z,2.10
2022-08-10T16:07:45.751Z,2.30
2022-08-10T16:12:01.959Z,2.20
2022-08-10T16:16:13.626Z,1.90
2022-08-10T16:20:31.114Z,2.20
2022-08-10T16:24:41.467Z,1.80
2022-08-10T16:28:51.811Z,2.10
2022-08-10T16:33:01.610Z,2.00
2022-08-10T16:37:15.266Z,2.40
2022-08-10T16:42:03.940Z,2.00
2022-08-10T16:45:55.505Z,2.10
2022-08-10T16:50:06.385Z,2.00
2022-08-10T16:54:14.392Z,2.00
2022-08-10T16:58:28.956Z,2.30
2022-08-10T17:02:38.751Z,2.40
2022-08-10T17:06:55.854Z,1.90
2022-08-10T17:11:05.452Z,1.90
2022-08-10T17:15:16.239Z,2.00
2022-08-10T17:19:29.970Z,2.10
2022-08-10T17:23:42.224Z,2.10
2022-08-10T17:28:05.678Z,2.30
2022-08-10T17:32:25.273Z,2.10
2022-08-10T17:36:36.772Z,2.20
2022-08-10T17:40:49.283Z,2.20
2022-08-10T17:45:00.327Z,2.50
2022-08-10T17:49:11.432Z,2.40
2022-08-10T17:53:20.562Z,2.20
2022-08-10T17:57:28.932Z,2.40
2022-08-10T18:01:40.478Z,2.00
2022-08-10T18:06:05.984Z,2.20
2022-08-10T18:10:16.675Z,2.20
2022-08-10T18:14:25.919Z,2.20
2022-08-10T18:18:35.991Z,2.00
2022-08-10T18:22:47.231Z,2.00
2022-08-10T18:26:56.458Z,2.20
2022-08-10T18:31:06.844Z,2.40
2022-08-10T18:35:16.997Z,2.10
2022-08-10T18:39:26.783Z,2.10
2022-08-10T18:44:10.689Z,2.20
2022-08-10T18:48:12.049Z,2.50
2022-08-10T18:52:21.033Z,2.20
2022-08-10T18:56:42.354Z,2.30
2022-08-10T19:01:06.138Z,2.40
2022-08-10T19:05:31.541Z,2.40
2022-08-10T19:09:56.803Z,2.40
2022-08-10T19:14:12.221Z,2.50
2022-08-10T19:18:34.121Z,2.80
2022-08-10T19:22:49.076Z,2.70
2022-08-10T19:27:08.036Z,2.70
2022-08-10T19:31:23.570Z,2.90
2022-08-10T19:36:03.508Z,2.50
2022-08-10T19:40:44.258Z,2.30
2022-08-10T19:45:02.724Z,2.40
2022-08-10T19:49:19.140Z,2.70
2022-08-10T19:53:42.017Z,2.60
2022-08-10T19:57:54.134Z,2.90
2022-08-10T20:02:02.433Z,3.00
2022-08-10T20:06:19.020Z,2.50
2022-08-10T20:10:32.695Z,2.70
2022-08-10T20:14:48.817Z,2.30
2022-08-10T20:18:58.858Z,2.40
2022-08-10T20:23:13.023Z,2.50
2022-08-10T20:27:36.718Z,2.80
2022-08-10T20:32:02.623Z,2.70
2022-08-10T20:36:19.519Z,2.50
2022-08-10T20:40:34.682Z,3.10
2022-08-10T20:44:55.196Z,2.80
2022-08-10T20:49:16.550Z,2.80
2022-08-10T20:53:27.208Z,2.90
2022-08-10T20:58:04.513Z,2.50
2022-08-10T21:02:28.309Z,2.60
2022-08-10T21:06:58.834Z,3.00
2022-08-10T21:11:12.487Z,3.20
2022-08-10T21:15:42.012Z,3.20
2022-08-10T21:20:02.756Z,3.10
2022-08-10T21:24:12.935Z,2.90
2022-08-10T21:28:50.054Z,3.20
2022-08-10T21:32:59.702Z,2.70
2022-08-10T21:37:12.654Z,3.10
2022-08-10T21:41:56.981Z,3.50
2022-08-10T21:46:32.157Z,3.60
2022-08-10T21:55:57.703Z,3.00
2022-08-10T22:00:29.551Z,2.70
2022-08-10T22:04:55.277Z,2.80
2022-08-10T22:09:23.584Z,3.00
2022-08-10T22:13:49.608Z,3.10
2022-08-10T22:18:14.770Z,3.10
2022-08-10T22:23:18.794Z,3.10
2022-08-10T22:27:50.948Z,3.10
2022-08-10T22:31:25.377Z,3.00
2022-08-10T22:32:21.284Z,3.00
2022-08-10T22:36:56.971Z,3.00
2022-08-10T22:41:31.632Z,3.30
2022-08-10T22:46:01.648Z,3.10
2022-08-10T22:50:10.236Z,3.10
2022-08-10T22:54:45.082Z,3.50
2022-08-10T22:58:52.518Z,3.00
2022-08-10T23:03:04.127Z,3.20
2022-08-10T23:07:21.497Z,3.50
2022-08-10T23:11:31.571Z,3.00
2022-08-10T23:16:00.225Z,3.30
2022-08-10T23:20:11.016Z,3.30
2022-08-10T23:24:25.679Z,3.20
2022-08-10T23:28:39.343Z,3.20
2022-08-10T23:33:06.008Z,3.70
2022-08-10T23:37:14.357Z,3.40
2022-08-10T23:41:30.100Z,3.50
2022-08-10T23:45:53.892Z,3.70
2022-08-10T23:50:03.912Z,3.40
2022-08-10T23:54:16.798Z,3.70
2022-08-10T23:58:32.792Z,3.60
